Time;durP1;ratioP1;P1;durP2;ratioP2;P2;SDS_P1;SDS_P2;PMS_P1;PMS_P2;Temp;Humidity;BMP_temperature;BMP_pressure;BME280_temperature;BME280_humidity;BME280_pressure;Samples;Min_cycle;Max_cycle;Signal;HPM_P1;HPM_P2
2021/06/25 00:02:07;;;;;;;0.73;0.57;;;14.20;99.90;;;;;;5101388;28;20204;-81
2021/06/25 00:04:33;;;;;;;0.70;0.57;;;14.20;99.90;;;;;;5101103;28;20173;-81
2021/06/25 00:06:59;;;;;;;0.60;0.60;;;14.20;99.90;;;;;;5099860;28;20582;-80
2021/06/25 00:09:24;;;;;;;0.93;0.70;;;14.20;99.90;;;;;;5101049;28;20582;-81
2021/06/25 00:11:50;;;;;;;0.60;0.60;;;14.20;99.90;;;;;;5099016;28;20176;-81
2021/06/25 00:14:22;;;;;;;0.80;0.60;;;14.10;99.90;;;;;;5101356;28;20174;-81
2021/06/25 00:16:49;;;;;;;1.30;0.70;;;14.20;99.90;;;;;;5100676;28;20203;-80
2021/06/25 00:19:16;;;;;;;1.00;0.80;;;14.10;99.90;;;;;;5101179;28;20533;-81
2021/06/25 00:21:41;;;;;;;0.83;0.70;;;14.20;99.90;;;;;;5100229;28;20195;-81
2021/06/25 00:24:07;;;;;;;0.80;0.70;;;14.10;99.90;;;;;;5100050;28;20653;-81
2021/06/25 00:26:33;;;;;;;0.80;0.80;;;14.10;99.90;;;;;;5100938;28;20175;-81
2021/06/25 00:28:58;;;;;;;0.73;0.60;;;14.00;99.90;;;;;;5099532;28;20196;-81
2021/06/25 00:31:24;;;;;;;0.63;0.60;;;14.00;99.90;;;;;;5100775;28;20525;-81
2021/06/25 00:33:50;;;;;;;0.70;0.70;;;14.00;99.90;;;;;;5101316;28;20168;-81
2021/06/25 00:36:15;;;;;;;0.67;0.57;;;14.00;99.90;;;;;;5100855;28;20661;-81
2021/06/25 00:38:41;;;;;;;0.50;0.50;;;14.00;99.90;;;;;;5101413;28;20207;-81
2021/06/25 00:41:07;;;;;;;0.70;0.70;;;14.00;99.90;;;;;;5102183;28;20245;-81
2021/06/25 00:43:33;;;;;;;0.70;0.60;;;14.00;99.90;;;;;;5101630;28;20271;-80
2021/06/25 00:45:58;;;;;;;1.33;0.70;;;13.90;99.90;;;;;;5099911;28;20586;-81
2021/06/25 00:48:24;;;;;;;1.37;1.27;;;13.90;99.90;;;;;;5101063;28;20198;-81
2021/06/25 00:50:50;;;;;;;0.93;0.70;;;13.90;99.90;;;;;;5103685;28;20629;-81
2021/06/25 00:53:16;;;;;;;0.60;0.50;;;13.90;99.90;;;;;;5105426;28;20176;-81
2021/06/25 00:55:42;;;;;;;0.70;0.60;;;13.90;99.90;;;;;;5103668;28;20263;-81
2021/06/25 00:58:13;;;;;;;2.20;1.80;;;13.90;99.90;;;;;;5103327;28;20658;-80
2021/06/25 01:00:39;;;;;;;2.53;0.70;;;13.90;99.90;;;;;;5102659;28;20177;-81
2021/06/25 01:03:05;;;;;;;0.80;0.70;;;14.00;99.90;;;;;;5103497;28;20259;-81
2021/06/25 01:05:31;;;;;;;0.60;0.60;;;13.90;99.90;;;;;;5104473;28;20196;-81
2021/06/25 01:07:57;;;;;;;1.07;0.70;;;13.90;99.90;;;;;;5104781;28;20199;-81
2021/06/25 01:10:24;;;;;;;0.70;0.70;;;14.00;99.90;;;;;;5103408;28;20176;-81
2021/06/25 01:12:51;;;;;;;0.70;0.70;;;14.00;99.90;;;;;;5103635;28;20183;-81
2021/06/25 01:15:16;;;;;;;0.83;0.80;;;13.90;99.90;;;;;;5105131;28;20249;-81
2021/06/25 01:17:44;;;;;;;0.93;0.70;;;13.90;99.90;;;;;;5105041;28;20220;-81
2021/06/25 01:20:13;;;;;;;1.00;0.70;;;13.90;99.90;;;;;;5105405;28;20203;-81
2021/06/25 01:22:41;;;;;;;1.00;0.90;;;13.90;99.90;;;;;;5105846;28;20231;-81
2021/06/25 01:25:23;;;;;;;3.83;1.07;;;13.90;99.90;;;;;;5103315;28;20178;-81
2021/06/25 01:27:55;;;;;;;0.73;0.73;;;13.80;99.90;;;;;;5103076;28;20289;-81
2021/06/25 01:30:24;;;;;;;1.33;0.80;;;13.90;99.90;;;;;;5102848;28;20168;-80
2021/06/25 01:32:50;;;;;;;1.20;0.93;;;13.80;99.90;;;;;;5102915;28;20600;-80
2021/06/25 01:35:16;;;;;;;1.30;1.20;;;13.80;99.90;;;;;;5102918;28;20179;-81
2021/06/25 01:37:42;;;;;;;1.67;0.97;;;13.80;99.90;;;;;;5104433;28;20184;-81
2021/06/25 01:40:10;;;;;;;1.20;0.90;;;13.80;99.90;;;;;;5102645;28;20178;-80
2021/06/25 01:42:37;;;;;;;2.10;1.17;;;13.80;99.90;;;;;;5104184;28;20680;-81
2021/06/25 01:45:06;;;;;;;1.83;1.20;;;13.80;99.90;;;;;;5104522;28;20173;-81
2021/06/25 01:47:35;;;;;;;1.17;1.00;;;13.80;99.90;;;;;;5104114;28;20192;-81
2021/06/25 01:50:07;;;;;;;1.00;0.90;;;13.80;99.90;;;;;;5101560;28;20676;-81
2021/06/25 01:52:32;;;;;;;1.10;1.00;;;13.80;99.90;;;;;;5103789;28;20164;-81
2021/06/25 01:54:58;;;;;;;1.90;1.10;;;13.80;99.90;;;;;;5104300;28;20264;-81
2021/06/25 01:57:24;;;;;;;1.53;1.37;;;13.80;99.90;;;;;;5102202;28;20199;-80
2021/06/25 01:59:50;;;;;;;1.57;1.10;;;13.80;99.90;;;;;;5104136;28;20176;-80
2021/06/25 02:02:15;;;;;;;2.30;1.00;;;13.80;99.90;;;;;;5102480;28;20196;-80
2021/06/25 02:04:42;;;;;;;1.77;1.00;;;13.80;99.90;;;;;;5102385;28;20179;-80
2021/06/25 02:07:07;;;;;;;1.97;1.20;;;13.90;99.90;;;;;;5102050;28;20196;-81
2021/06/25 02:09:33;;;;;;;2.03;1.10;;;13.90;99.90;;;;;;5103812;28;20171;-81
2021/06/25 02:11:59;;;;;;;1.90;1.00;;;13.90;99.90;;;;;;5103879;28;20535;-81
2021/06/25 02:14:25;;;;;;;1.80;1.27;;;13.80;99.90;;;;;;5102177;28;20176;-81
2021/06/25 02:16:51;;;;;;;1.57;1.00;;;13.80;99.90;;;;;;5102539;28;20178;-81
2021/06/25 02:19:17;;;;;;;1.67;1.10;;;13.80;99.90;;;;;;5101647;28;20210;-81
2021/06/25 02:21:42;;;;;;;1.07;0.97;;;13.80;99.90;;;;;;5103084;28;20195;-81
2021/06/25 02:24:08;;;;;;;1.53;0.97;;;13.80;99.90;;;;;;5104263;28;20195;-81
2021/06/25 02:26:34;;;;;;;1.87;1.00;;;13.80;99.90;;;;;;5104254;28;20171;-81
2021/06/25 02:28:59;;;;;;;1.40;1.23;;;13.80;99.90;;;;;;5103217;28;20511;-81
2021/06/25 02:31:25;;;;;;;2.30;1.20;;;13.80;99.90;;;;;;5103193;28;20180;-81
2021/06/25 02:33:51;;;;;;;1.23;1.13;;;13.90;99.90;;;;;;5104488;28;20179;-81
2021/06/25 02:36:16;;;;;;;1.37;1.20;;;13.90;99.90;;;;;;5104433;28;20201;-81
2021/06/25 02:38:42;;;;;;;1.30;1.20;;;13.80;99.90;;;;;;5104635;28;20195;-82
2021/06/25 02:41:08;;;;;;;2.07;1.50;;;13.80;99.90;;;;;;5103301;28;20314;-81
2021/06/25 02:43:34;;;;;;;1.33;1.23;;;13.80;99.90;;;;;;5105334;28;20168;-80
2021/06/25 02:45:59;;;;;;;1.07;0.97;;;13.80;99.90;;;;;;5105742;28;20195;-81
2021/06/25 02:48:25;;;;;;;1.30;1.20;;;13.80;99.90;;;;;;5102333;28;20196;-81
2021/06/25 02:50:51;;;;;;;4.40;1.40;;;13.80;99.90;;;;;;5102756;28;20176;-81
2021/06/25 02:53:16;;;;;;;1.57;1.37;;;13.80;99.90;;;;;;5102722;28;20182;-81
2021/06/25 02:55:51;;;;;;;3.43;1.30;;;13.80;99.90;;;;;;5104522;28;20168;-81
2021/06/25 02:58:26;;;;;;;1.50;1.40;;;13.80;99.90;;;;;;5102732;28;20253;-81
2021/06/25 03:00:55;;;;;;;2.07;1.20;;;13.80;99.90;;;;;;5103899;28;20216;-81
2021/06/25 03:03:21;;;;;;;2.20;1.50;;;13.80;99.90;;;;;;5102586;28;20198;-81
2021/06/25 03:05:48;;;;;;;1.50;1.40;;;13.80;99.90;;;;;;5103416;28;20229;-81
2021/06/25 03:08:14;;;;;;;2.17;1.40;;;13.80;99.90;;;;;;5104660;28;20195;-81
2021/06/25 03:10:49;;;;;;;1.60;1.40;;;13.80;99.90;;;;;;5102202;28;20169;-81
2021/06/25 03:13:16;;;;;;;1.70;1.40;;;13.80;99.90;;;;;;5104143;28;20152;-81
2021/06/25 03:15:42;;;;;;;1.63;1.50;;;13.90;99.90;;;;;;5105234;28;20172;-82
2021/06/25 03:18:08;;;;;;;3.17;1.60;;;13.80;99.90;;;;;;5105990;28;20188;-81
2021/06/25 03:20:34;;;;;;;2.17;1.37;;;13.80;99.90;;;;;;5103327;28;20633;-81
2021/06/25 03:23:00;;;;;;;1.60;1.30;;;13.80;99.90;;;;;;5103261;28;20221;-81
2021/06/25 03:25:25;;;;;;;1.60;1.50;;;13.80;99.90;;;;;;5103677;28;20160;-81
2021/06/25 03:27:51;;;;;;;2.13;1.40;;;13.80;99.90;;;;;;5101314;28;20360;-81
2021/06/25 03:30:17;;;;;;;3.53;1.30;;;13.80;99.90;;;;;;5103019;28;20178;-80
2021/06/25 03:32:43;;;;;;;1.83;1.43;;;13.80;99.90;;;;;;5101628;28;20179;-81
2021/06/25 03:35:09;;;;;;;2.60;1.60;;;13.80;99.90;;;;;;5103586;28;20176;-81
2021/06/25 03:37:35;;;;;;;1.80;1.70;;;13.80;99.90;;;;;;5101915;28;20195;-81
2021/06/25 03:40:04;;;;;;;1.70;1.50;;;13.80;99.90;;;;;;5101531;28;20203;-81
2021/06/25 03:42:29;;;;;;;1.80;1.30;;;13.80;99.90;;;;;;5102212;28;20561;-81
2021/06/25 03:44:55;;;;;;;1.47;1.37;;;13.80;99.90;;;;;;5101707;28;20188;-82
2021/06/25 03:47:20;;;;;;;2.13;1.60;;;13.80;99.90;;;;;;5102111;28;20225;-82
2021/06/25 03:49:46;;;;;;;2.80;1.60;;;13.80;99.90;;;;;;5101691;28;20219;-80
2021/06/25 03:52:12;;;;;;;1.83;1.50;;;13.90;99.90;;;;;;5103780;28;20241;-81
2021/06/25 03:54:37;;;;;;;4.37;1.90;;;13.90;99.90;;;;;;5101791;28;20187;-82
2021/06/25 03:57:04;;;;;;;1.63;1.53;;;13.90;99.90;;;;;;5102700;28;20176;-81
2021/06/25 03:59:29;;;;;;;1.97;1.70;;;13.80;99.90;;;;;;5103084;28;20168;-81
2021/06/25 04:01:55;;;;;;;1.67;1.53;;;13.90;99.90;;;;;;5103322;28;20283;-81
2021/06/25 04:04:20;;;;;;;2.37;1.50;;;13.90;99.90;;;;;;5103994;28;20168;-81
2021/06/25 04:06:46;;;;;;;3.40;1.80;;;13.90;99.90;;;;;;5102126;28;20171;-81
2021/06/25 04:09:12;;;;;;;3.80;1.90;;;13.90;99.90;;;;;;5105839;28;20247;-80
2021/06/25 04:11:37;;;;;;;2.17;1.90;;;13.90;99.90;;;;;;5102194;28;20168;-81
2021/06/25 04:14:04;;;;;;;2.17;1.97;;;13.90;99.90;;;;;;5102404;28;20180;-81
2021/06/25 04:16:30;;;;;;;2.83;2.27;;;13.80;99.90;;;;;;5100316;28;20188;-81
2021/06/25 04:18:55;;;;;;;3.10;2.77;;;13.80;99.90;;;;;;5100410;28;20211;-81
2021/06/25 04:21:22;;;;;;;2.90;2.60;;;13.80;99.90;;;;;;5100630;28;20779;-81
2021/06/25 04:23:48;;;;;;;3.63;3.10;;;13.80;99.90;;;;;;5103013;28;20270;-81
2021/06/25 04:26:14;;;;;;;3.97;3.30;;;13.80;99.90;;;;;;5106689;28;20187;-81
2021/06/25 04:28:40;;;;;;;4.57;3.20;;;13.80;99.90;;;;;;5106428;28;20215;-81
2021/06/25 04:31:06;;;;;;;3.80;3.03;;;13.80;99.90;;;;;;5104858;28;20184;-81
2021/06/25 04:33:32;;;;;;;4.27;3.27;;;13.80;99.90;;;;;;5105413;28;20183;-81
2021/06/25 04:35:58;;;;;;;7.00;3.73;;;13.90;99.90;;;;;;5106809;28;20178;-81
2021/06/25 04:38:23;;;;;;;3.43;3.03;;;13.90;99.90;;;;;;5105680;28;20200;-81
2021/06/25 04:40:50;;;;;;;4.20;3.17;;;14.00;99.90;;;;;;5105867;28;20172;-82
2021/06/25 04:43:16;;;;;;;5.30;3.30;;;14.10;99.90;;;;;;5105805;28;20183;-83
2021/06/25 04:45:44;;;;;;;5.07;3.57;;;14.10;99.90;;;;;;5103865;28;20189;-81
2021/06/25 04:48:15;;;;;;;5.07;3.30;;;14.20;99.90;;;;;;5104155;28;20676;-81
2021/06/25 04:50:42;;;;;;;5.60;3.30;;;14.30;99.90;;;;;;5100403;28;20175;-81
2021/06/25 04:53:08;;;;;;;5.27;4.03;;;14.40;99.90;;;;;;5100739;28;20183;-81
2021/06/25 04:55:41;;;;;;;4.50;3.60;;;14.50;99.90;;;;;;5101250;28;20180;-82
2021/06/25 04:58:12;;;;;;;5.47;3.73;;;14.60;99.90;;;;;;5101138;28;20719;-81
2021/06/25 05:00:38;;;;;;;4.17;3.67;;;14.70;99.90;;;;;;5101107;28;20184;-82
2021/06/25 05:03:05;;;;;;;6.17;3.73;;;14.70;99.90;;;;;;5101339;28;20229;-82
2021/06/25 05:05:32;;;;;;;4.67;4.00;;;14.60;99.90;;;;;;5099852;28;20176;-82
2021/06/25 05:07:57;;;;;;;5.13;4.00;;;14.70;99.90;;;;;;5101059;28;20234;-81
2021/06/25 05:10:23;;;;;;;5.13;4.07;;;14.70;99.90;;;;;;5101652;28;20168;-82
2021/06/25 05:12:49;;;;;;;5.83;4.00;;;14.80;99.90;;;;;;5100598;28;20180;-81
2021/06/25 05:15:15;;;;;;;8.10;3.83;;;14.90;99.90;;;;;;5099282;28;20180;-81
2021/06/25 05:17:41;;;;;;;5.47;4.27;;;14.90;99.90;;;;;;5099414;28;20283;-82
2021/06/25 05:20:07;;;;;;;5.33;3.60;;;14.90;99.90;;;;;;5099288;28;20215;-81
2021/06/25 05:22:33;;;;;;;4.27;3.87;;;14.90;99.90;;;;;;5100763;28;20553;-82
2021/06/25 05:24:59;;;;;;;6.37;4.07;;;14.90;99.90;;;;;;5099820;28;20165;-82
2021/06/25 05:27:25;;;;;;;5.53;3.93;;;14.90;99.90;;;;;;5098406;28;20246;-82
2021/06/25 05:29:51;;;;;;;4.20;3.80;;;14.90;99.90;;;;;;5085484;28;20188;-82
2021/06/25 05:32:16;;;;;;;4.63;3.60;;;14.90;99.90;;;;;;5078380;28;20185;-82
2021/06/25 05:34:44;;;;;;;5.60;3.53;;;14.90;99.90;;;;;;5078648;28;20177;-82
2021/06/25 05:37:10;;;;;;;5.07;4.00;;;15.00;99.90;;;;;;5079604;28;20205;-82
2021/06/25 05:39:36;;;;;;;4.87;3.50;;;15.00;99.90;;;;;;5079436;28;20177;-82
2021/06/25 05:42:01;;;;;;;4.37;3.60;;;15.00;99.90;;;;;;5080322;28;20208;-83
2021/06/25 05:44:27;;;;;;;6.30;3.77;;;14.90;99.90;;;;;;5079318;28;20645;-83
2021/06/25 05:46:52;;;;;;;3.90;3.40;;;14.90;99.90;;;;;;5080903;28;20173;-82
2021/06/25 05:49:18;;;;;;;4.20;2.70;;;14.80;99.90;;;;;;5079367;28;20184;-82
2021/06/25 05:51:44;;;;;;;4.97;3.30;;;14.80;99.90;;;;;;5082300;28;20181;-81
2021/06/25 05:54:09;;;;;;;4.60;3.47;;;14.80;99.90;;;;;;5083950;28;20177;-81
2021/06/25 05:56:35;;;;;;;5.33;3.70;;;14.80;99.90;;;;;;5085880;28;20173;-82
2021/06/25 05:59:01;;;;;;;6.67;3.33;;;14.80;99.90;;;;;;5086909;28;20216;-81
2021/06/25 06:01:29;;;;;;;5.23;3.80;;;14.70;99.90;;;;;;5083643;28;20209;-81
2021/06/25 06:03:55;;;;;;;4.10;3.40;;;14.70;99.90;;;;;;5082706;28;20208;-82
2021/06/25 06:06:20;;;;;;;4.33;3.53;;;14.70;99.90;;;;;;5082635;28;20176;-82
2021/06/25 06:08:46;;;;;;;3.93;3.20;;;14.60;99.90;;;;;;5082621;28;20193;-82
2021/06/25 06:11:12;;;;;;;3.97;3.30;;;14.70;99.90;;;;;;5082820;28;20198;-82
2021/06/25 06:13:38;;;;;;;5.17;3.10;;;14.70;99.90;;;;;;5081482;28;20244;-81
2021/06/25 06:16:04;;;;;;;3.70;3.30;;;14.70;99.90;;;;;;5081431;28;20209;-82
2021/06/25 06:18:36;;;;;;;3.77;3.47;;;14.80;99.90;;;;;;5081282;28;20201;-82
2021/06/25 06:21:02;;;;;;;7.93;3.80;;;15.00;99.90;;;;;;5079699;28;20234;-81
2021/06/25 06:31:47;;;;;;;5.73;3.43;;;15.30;99.90;;;;;;5081883;28;20195;-82
2021/06/25 06:34:13;;;;;;;3.20;2.70;;;15.20;99.90;;;;;;5082069;28;20560;-82
2021/06/25 06:36:44;;;;;;;4.27;3.10;;;15.40;99.90;;;;;;5082739;28;20211;-82
2021/06/25 06:39:10;;;;;;;5.03;3.47;;;15.50;99.90;;;;;;5082152;28;20192;-82
2021/06/25 06:41:37;;;;;;;3.83;3.30;;;15.60;99.90;;;;;;5080934;28;20219;-82
2021/06/25 06:44:03;;;;;;;4.67;3.60;;;15.60;99.90;;;;;;5076813;28;20241;-82
2021/06/25 06:46:30;;;;;;;6.90;4.30;;;15.60;99.90;;;;;;5075357;28;20176;-82
2021/06/25 06:48:56;;;;;;;5.50;3.17;;;15.70;99.90;;;;;;5082571;28;20211;-82
2021/06/25 06:51:22;;;;;;;4.30;3.03;;;15.80;99.90;;;;;;5080050;28;20626;-82
2021/06/25 06:53:49;;;;;;;7.23;3.10;;;15.90;99.90;;;;;;5081609;28;20238;-82
2021/06/25 06:56:17;;;;;;;5.77;3.20;;;16.10;99.90;;;;;;5082224;28;20177;-82
2021/06/25 06:58:42;;;;;;;3.17;2.87;;;16.30;99.90;;;;;;5081362;28;20232;-82
2021/06/25 07:01:09;;;;;;;7.70;3.40;;;16.40;99.90;;;;;;5079478;28;20209;-82
2021/06/25 07:03:35;;;;;;;4.17;3.10;;;16.40;99.90;;;;;;5079883;28;20173;-82
2021/06/25 07:06:02;;;;;;;3.87;3.30;;;16.30;99.90;;;;;;5080939;28;20532;-83
2021/06/25 07:08:27;;;;;;;3.53;3.07;;;16.30;99.90;;;;;;5081501;28;20192;-82
2021/06/25 07:10:53;;;;;;;2.83;2.63;;;16.20;99.90;;;;;;5080086;28;20176;-82
2021/06/25 07:13:19;;;;;;;2.63;2.37;;;16.30;99.90;;;;;;5081650;28;20211;-82
2021/06/25 07:15:45;;;;;;;3.33;2.53;;;16.20;99.90;;;;;;5081624;28;20169;-82
2021/06/25 07:18:10;;;;;;;4.73;2.50;;;16.20;99.90;;;;;;5080104;28;20242;-83
2021/06/25 07:20:36;;;;;;;4.33;2.10;;;16.20;99.90;;;;;;5080194;28;20165;-82
2021/06/25 07:23:02;;;;;;;2.83;2.27;;;16.10;99.90;;;;;;5079909;28;20299;-82
2021/06/25 07:25:29;;;;;;;6.07;2.43;;;16.30;99.90;;;;;;5079907;28;20193;-82
2021/06/25 07:27:54;;;;;;;4.50;2.10;;;16.50;99.90;;;;;;5080257;28;20211;-81
2021/06/25 07:30:20;;;;;;;1.97;1.60;;;16.70;99.90;;;;;;5079254;28;20180;-82
2021/06/25 07:32:47;;;;;;;2.27;1.90;;;16.80;99.90;;;;;;5079045;28;20177;-82
2021/06/25 07:35:14;;;;;;;2.77;1.80;;;16.80;99.90;;;;;;5079229;28;20254;-82
2021/06/25 07:37:40;;;;;;;2.80;1.43;;;16.80;99.90;;;;;;5081213;28;20192;-82
2021/06/25 07:40:07;;;;;;;1.87;1.70;;;16.60;99.90;;;;;;5081221;28;20185;-81
2021/06/25 07:42:34;;;;;;;1.70;1.37;;;16.70;99.90;;;;;;5078467;28;20745;-81
2021/06/25 07:45:00;;;;;;;2.63;1.50;;;16.70;99.90;;;;;;5079946;28;20255;-81
2021/06/25 07:47:26;;;;;;;2.13;1.60;;;16.70;99.90;;;;;;5079661;28;20580;-81
2021/06/25 07:49:52;;;;;;;3.33;1.70;;;16.70;99.90;;;;;;5078246;28;20173;-82
2021/06/25 07:52:19;;;;;;;3.20;1.60;;;16.70;99.90;;;;;;5078876;28;20191;-81
2021/06/25 07:54:44;;;;;;;2.47;1.60;;;16.70;99.90;;;;;;5080524;28;20636;-81
2021/06/25 07:57:10;;;;;;;1.40;1.20;;;16.70;99.90;;;;;;5079633;28;20239;-83
2021/06/25 07:59:36;;;;;;;1.50;1.23;;;17.00;99.90;;;;;;5080654;28;20173;-81
2021/06/25 08:02:02;;;;;;;1.90;1.33;;;17.00;99.90;;;;;;5079694;28;20731;-82
2021/06/25 08:04:29;;;;;;;1.83;1.50;;;17.10;99.90;;;;;;5078976;28;20184;-82
2021/06/25 08:06:55;;;;;;;1.03;0.93;;;17.10;99.90;;;;;;5079257;28;20192;-81
2021/06/25 08:09:21;;;;;;;1.20;1.10;;;17.10;99.90;;;;;;5078715;28;20180;-81
2021/06/25 08:11:47;;;;;;;3.90;1.30;;;17.00;99.90;;;;;;5074978;28;20196;-81
2021/06/25 08:14:13;;;;;;;2.40;1.23;;;16.90;99.90;;;;;;5076622;28;20177;-82
2021/06/25 08:16:38;;;;;;;1.67;1.30;;;16.80;99.90;;;;;;5079875;28;20189;-82
2021/06/25 08:19:06;;;;;;;1.70;1.50;;;16.70;99.90;;;;;;5078899;28;20196;-81
2021/06/25 08:21:32;;;;;;;1.53;1.43;;;16.70;99.90;;;;;;5080766;28;20218;-82
2021/06/25 08:23:58;;;;;;;2.73;1.53;;;16.70;99.90;;;;;;5080318;28;20710;-82
2021/06/25 08:26:24;;;;;;;2.10;1.60;;;16.60;99.90;;;;;;5079819;28;20174;-82
2021/06/25 08:28:50;;;;;;;1.70;1.60;;;16.60;99.90;;;;;;5077277;28;20213;-82
2021/06/25 08:31:16;;;;;;;2.00;1.53;;;16.60;99.90;;;;;;5075518;28;20173;-82
2021/06/25 08:33:43;;;;;;;2.07;1.63;;;16.60;99.90;;;;;;5081762;28;20255;-82
2021/06/25 08:36:09;;;;;;;2.57;1.73;;;16.60;99.90;;;;;;5082141;28;20281;-82
2021/06/25 08:38:35;;;;;;;1.60;1.50;;;16.70;99.90;;;;;;5081907;28;20198;-82
2021/06/25 08:41:03;;;;;;;2.03;1.70;;;16.80;99.90;;;;;;5080972;28;20242;-82
2021/06/25 08:43:29;;;;;;;1.80;1.60;;;16.80;99.90;;;;;;5081944;28;20237;-82
2021/06/25 08:45:55;;;;;;;2.37;1.60;;;17.00;99.90;;;;;;5081700;28;20203;-81
2021/06/25 08:48:25;;;;;;;2.20;1.90;;;17.10;99.90;;;;;;5080487;28;20199;-81
2021/06/25 08:50:53;;;;;;;2.83;1.90;;;17.20;99.90;;;;;;5078954;28;20162;-81
2021/06/25 08:53:19;;;;;;;2.63;1.80;;;17.40;99.90;;;;;;5078666;28;20187;-81
2021/06/25 08:55:45;;;;;;;1.83;1.50;;;17.90;99.90;;;;;;5077946;28;20275;-83
2021/06/25 08:58:17;;;;;;;2.20;1.30;;;18.00;99.90;;;;;;5079105;28;20196;-82
2021/06/25 09:00:43;;;;;;;1.87;1.73;;;18.30;99.90;;;;;;5076898;28;20212;-83
2021/06/25 09:03:30;;;;;;;1.70;1.60;;;18.30;99.90;;;;;;5077651;28;20268;-83
2021/06/25 09:06:14;;;;;;;1.73;1.63;;;18.10;99.90;;;;;;5078029;28;20256;-83
2021/06/25 09:08:40;;;;;;;1.67;1.50;;;17.80;99.90;;;;;;5078666;28;20205;-83
2021/06/25 09:11:20;;;;;;;1.30;1.20;;;17.80;99.90;;;;;;5081233;28;20181;-83
2021/06/25 09:13:45;;;;;;;1.50;1.17;;;17.60;99.90;;;;;;5082916;28;20182;-82
2021/06/25 09:16:26;;;;;;;2.10;1.50;;;17.70;99.90;;;;;;5080595;28;20180;-82
2021/06/25 09:19:16;;;;;;;1.53;1.40;;;17.90;99.90;;;;;;5081699;28;20565;-81
2021/06/25 09:22:03;;;;;;;1.67;1.57;;;17.80;99.90;;;;;;5082235;28;20206;-82
2021/06/25 09:24:29;;;;;;;2.33;1.60;;;17.60;99.90;;;;;;5082254;28;20635;-81
2021/06/25 09:27:01;;;;;;;2.17;1.67;;;17.60;99.90;;;;;;5082455;28;20192;-81
2021/06/25 09:29:29;;;;;;;3.80;1.43;;;17.50;99.90;;;;;;5083817;28;20173;-81
2021/06/25 09:32:09;;;;;;;1.87;1.77;;;17.70;99.90;;;;;;5082392;28;20268;-82
2021/06/25 09:34:43;;;;;;;1.80;1.70;;;18.10;99.90;;;;;;5082328;28;20176;-81
2021/06/25 09:37:13;;;;;;;1.70;1.60;;;18.50;99.90;;;;;;5081347;28;20222;-81
2021/06/25 09:39:43;;;;;;;2.40;1.40;;;18.70;99.90;;;;;;5082576;28;20185;-81
2021/06/25 09:42:21;;;;;;;2.50;1.57;;;18.60;99.90;;;;;;5082285;28;20224;-81
2021/06/25 09:45:07;;;;;;;2.13;1.50;;;18.50;99.90;;;;;;5082429;28;20240;-81
2021/06/25 09:47:41;;;;;;;1.80;1.50;;;18.50;99.90;;;;;;5082479;28;20194;-81
2021/06/25 09:50:18;;;;;;;3.77;1.63;;;18.30;99.90;;;;;;5081065;28;20183;-81
2021/06/25 09:52:57;;;;;;;4.63;1.50;;;18.20;99.90;;;;;;5081460;28;20183;-81
2021/06/25 09:55:55;;;;;;;3.10;1.80;;;18.10;99.90;;;;;;5080873;28;20205;-81
2021/06/25 10:03:52;;;;;;;7.37;1.70;;;18.20;99.90;;;;;;5082478;28;20294;-81
2021/06/25 10:06:25;;;;;;;1.60;1.50;;;18.40;99.90;;;;;;5081885;28;20197;-81
2021/06/25 10:08:52;;;;;;;3.23;1.53;;;18.50;99.90;;;;;;5081966;28;20667;-81
2021/06/25 10:11:19;;;;;;;1.40;1.30;;;18.50;99.90;;;;;;5080490;28;20186;-81
2021/06/25 10:13:46;;;;;;;4.40;1.50;;;18.60;99.90;;;;;;5080502;28;20183;-81
2021/06/25 10:16:13;;;;;;;1.50;1.40;;;18.50;99.90;;;;;;5081699;28;20176;-81
2021/06/25 10:18:44;;;;;;;1.50;1.33;;;18.60;99.90;;;;;;5080918;28;20232;-81
2021/06/25 10:21:17;;;;;;;1.83;1.53;;;18.70;99.90;;;;;;5078636;28;20173;-82
2021/06/25 10:23:49;;;;;;;2.13;1.60;;;18.70;99.90;;;;;;5082398;28;20693;-82
2021/06/25 10:26:17;;;;;;;1.57;1.47;;;18.80;99.90;;;;;;5080267;28;20274;-81
2021/06/25 10:28:44;;;;;;;1.60;1.50;;;19.00;99.90;;;;;;5080674;28;20330;-81
2021/06/25 10:31:11;;;;;;;1.57;1.33;;;19.30;99.90;;;;;;5079907;28;20178;-81
2021/06/25 10:33:38;;;;;;;2.27;1.80;;;19.80;99.90;;;;;;5082351;28;20169;-81
2021/06/25 10:36:06;;;;;;;1.83;1.60;;;20.10;99.90;;;;;;5081771;28;20232;-81
2021/06/25 10:38:34;;;;;;;1.90;1.50;;;20.60;99.90;;;;;;5081708;28;20197;-81
2021/06/25 10:41:03;;;;;;;1.60;1.47;;;20.90;99.90;;;;;;5081335;28;20172;-81
2021/06/25 10:43:50;;;;;;;1.47;1.37;;;21.10;99.90;;;;;;5081596;28;20549;-81
2021/06/25 10:46:33;;;;;;;1.10;1.00;;;21.10;99.90;;;;;;5080916;28;20185;-82
2021/06/25 10:49:10;;;;;;;1.20;1.10;;;21.20;99.90;;;;;;5082190;28;20208;-82
2021/06/25 10:51:38;;;;;;;1.97;1.10;;;21.40;99.90;;;;;;5083721;28;20178;-82
2021/06/25 10:54:10;;;;;;;1.37;1.27;;;21.70;99.90;;;;;;5081306;28;20249;-81
2021/06/25 10:56:37;;;;;;;1.37;1.27;;;21.60;99.90;;;;;;5080946;28;20176;-81
2021/06/25 10:59:22;;;;;;;1.33;1.20;;;21.00;99.90;;;;;;5081169;28;20223;-82
2021/06/25 11:02:00;;;;;;;3.00;1.50;;;20.50;99.90;;;;;;5080976;28;20200;-81
2021/06/25 11:04:34;;;;;;;1.63;1.40;;;20.30;99.90;;;;;;5081380;28;20169;-83
2021/06/25 11:07:04;;;;;;;1.57;1.47;;;20.60;99.90;;;;;;5081562;28;20152;-83
2021/06/25 11:09:53;;;;;;;1.27;1.17;;;21.30;99.90;;;;;;5079968;28;20233;-83
2021/06/25 11:12:40;;;;;;;1.20;1.10;;;22.10;99.90;;;;;;5075215;28;20209;-82
2021/06/25 11:15:05;;;;;;;1.40;1.30;;;22.40;99.90;;;;;;5080084;28;20228;-85
2021/06/25 11:17:51;;;;;;;1.40;1.30;;;22.60;99.90;;;;;;5078079;28;20720;-83
2021/06/25 11:20:20;;;;;;;1.67;1.37;;;22.70;99.90;;;;;;5085384;28;20172;-83
2021/06/25 11:23:08;;;;;;;4.83;1.50;;;23.10;99.90;;;;;;5082107;28;20556;-83
2021/06/25 11:25:40;;;;;;;2.40;1.40;;;23.50;99.90;;;;;;5080436;28;20180;-83
2021/06/25 11:28:37;;;;;;;2.70;1.10;;;23.70;99.90;;;;;;5079469;28;20691;-84
2021/06/25 11:31:19;;;;;;;1.13;1.03;;;24.30;99.90;;;;;;5079739;28;20252;-83
2021/06/25 11:33:48;;;;;;;0.97;0.93;;;24.50;99.90;;;;;;5079478;28;20201;-82
2021/06/25 11:36:26;;;;;;;1.33;1.20;;;24.90;99.90;;;;;;5079347;28;20185;-82
2021/06/25 11:38:53;;;;;;;2.73;1.10;;;24.90;99.90;;;;;;5081041;28;20189;-82
2021/06/25 11:41:20;;;;;;;0.97;0.80;;;24.80;99.90;;;;;;5079460;28;20202;-82
2021/06/25 11:43:49;;;;;;;1.63;1.00;;;24.60;99.90;;;;;;5079117;28;20213;-82
2021/06/25 11:46:17;;;;;;;1.20;1.10;;;24.60;99.90;;;;;;5077832;28;20184;-82
2021/06/25 11:48:47;;;;;;;1.20;1.10;;;24.70;99.90;;;;;;5079000;28;20326;-83
2021/06/25 11:51:15;;;;;;;1.40;1.00;;;24.40;99.90;;;;;;5077413;28;20181;-83
2021/06/25 11:53:41;;;;;;;1.00;0.90;;;24.70;99.90;;;;;;5079911;28;20560;-83
2021/06/25 11:56:19;;;;;;;0.80;0.80;;;25.20;99.90;;;;;;5077492;28;20250;-83
2021/06/25 11:59:06;;;;;;;1.20;0.80;;;25.40;99.90;;;;;;5078540;28;20219;-84
2021/06/25 12:01:34;;;;;;;1.67;1.00;;;25.50;99.90;;;;;;5077809;28;20577;-83
2021/06/25 12:04:00;;;;;;;1.30;1.00;;;25.70;99.90;;;;;;5077205;28;20576;-82
2021/06/25 12:06:27;;;;;;;2.20;0.90;;;25.20;99.90;;;;;;5076995;28;20181;-82
2021/06/25 12:08:54;;;;;;;1.10;1.00;;;24.70;99.90;;;;;;5076933;28;20560;-83
2021/06/25 12:11:24;;;;;;;0.93;0.87;;;24.30;99.90;;;;;;5078501;28;20180;-83
2021/06/25 12:14:01;;;;;;;1.03;1.00;;;24.20;99.90;;;;;;5079237;28;20528;-83
2021/06/25 12:16:27;;;;;;;2.07;1.17;;;24.00;99.90;;;;;;5078066;28;20181;-83
2021/06/25 12:18:53;;;;;;;1.33;1.00;;;23.50;99.90;;;;;;5077302;28;20570;-83
2021/06/25 12:21:21;;;;;;;1.00;0.90;;;23.60;99.90;;;;;;5077619;28;20189;-83
2021/06/25 12:23:56;;;;;;;1.10;0.93;;;23.60;99.90;;;;;;5078316;28;20591;-83
2021/06/25 12:26:23;;;;;;;1.37;0.87;;;23.70;99.90;;;;;;5078903;28;20159;-84
2021/06/25 12:28:55;;;;;;;1.50;1.00;;;24.00;99.90;;;;;;5078570;28;20249;-83
2021/06/25 12:31:40;;;;;;;1.10;1.00;;;24.10;99.90;;;;;;5081321;28;20528;-81
2021/06/25 12:34:11;;;;;;;1.77;1.33;;;24.40;99.90;;;;;;5079537;28;20253;-81
2021/06/25 12:36:38;;;;;;;1.47;1.37;;;24.80;99.90;;;;;;5079541;28;20191;-82
2021/06/25 12:39:09;;;;;;;2.53;1.40;;;25.10;99.90;;;;;;5081319;28;20277;-82
2021/06/25 12:41:41;;;;;;;1.40;1.30;;;25.20;99.90;;;;;;5081183;28;20798;-82
2021/06/25 12:44:07;;;;;;;2.13;1.23;;;25.60;99.90;;;;;;5080617;28;20642;-82
2021/06/25 12:46:33;;;;;;;1.50;0.90;;;25.90;99.90;;;;;;5082447;28;20259;-83
2021/06/25 12:48:59;;;;;;;1.10;1.00;;;25.30;99.90;;;;;;5084160;28;20195;-81
2021/06/25 12:51:26;;;;;;;1.07;0.90;;;25.20;99.90;;;;;;5084526;28;20228;-80
2021/06/25 12:53:57;;;;;;;1.13;0.90;;;25.70;99.90;;;;;;5081085;28;20177;-79
2021/06/25 12:56:38;;;;;;;0.73;0.73;;;25.30;99.90;;;;;;5086751;28;20165;-81
2021/06/25 12:59:09;;;;;;;1.47;0.90;;;25.10;99.90;;;;;;5084174;28;20207;-80
2021/06/25 13:01:44;;;;;;;1.17;0.90;;;25.90;99.90;;;;;;5083434;28;20334;-82
2021/06/25 13:04:30;;;;;;;0.70;0.70;;;25.10;99.90;;;;;;5079701;28;20636;-81
2021/06/25 13:07:00;;;;;;;2.00;0.90;;;25.50;99.90;;;;;;5079484;28;20185;-82
2021/06/25 13:09:34;;;;;;;0.90;0.90;;;25.90;99.90;;;;;;5082967;28;20181;-81